createdAt,value
2022-08-22T00:01:45.780Z,5.40
2022-08-22T00:02:45.362Z,5.67
2022-08-22T00:02:48.149Z,5.23
2022-08-22T00:03:11.647Z,6.27
2022-08-22T00:05:05.601Z,4.30
2022-08-22T00:07:51.444Z,5.30
2022-08-22T00:10:45.096Z,4.83
2022-08-22T00:13:19.656Z,6.73
2022-08-22T00:16:14.123Z,4.97
2022-08-22T00:18:49.777Z,6.10
2022-08-22T00:21:32.820Z,6.13
2022-08-22T00:24:23.926Z,6.00
2022-08-22T00:27:04.108Z,5.20
2022-08-22T00:29:38.661Z,5.80
2022-08-22T00:32:15.123Z,5.20
2022-08-22T00:34:56.262Z,5.23
2022-08-22T00:37:38.944Z,5.57
2022-08-22T00:40:19.185Z,5.73
2022-08-22T00:42:51.493Z,5.00
2022-08-22T00:45:54.413Z,5.47
2022-08-22T00:48:59.580Z,5.60
2022-08-22T00:51:49.748Z,5.13
2022-08-22T00:54:34.636Z,5.00
2022-08-22T00:57:25.959Z,5.90
2022-08-22T01:00:17.356Z,4.50
2022-08-22T01:03:11.103Z,5.80
2022-08-22T01:05:50.657Z,6.27
2022-08-22T01:08:26.289Z,5.53
2022-08-22T01:11:02.014Z,6.10
2022-08-22T01:13:37.637Z,5.77
2022-08-22T01:16:35.084Z,5.90
2022-08-22T01:19:19.610Z,4.90
2022-08-22T01:22:14.147Z,6.67
2022-08-22T01:25:18.386Z,7.10
2022-08-22T01:28:10.140Z,6.17
2022-08-22T01:30:55.916Z,6.20
2022-08-22T01:34:00.066Z,5.70
2022-08-22T01:36:45.024Z,5.50
2022-08-22T01:39:29.808Z,6.23
2022-08-22T01:42:15.465Z,5.83
2022-08-22T01:44:50.975Z,6.10
2022-08-22T01:47:23.864Z,7.00
2022-08-22T01:50:01.935Z,6.40
2022-08-22T01:52:39.301Z,8.27
2022-08-22T01:55:12.486Z,7.27
2022-08-22T01:58:11.943Z,7.97
2022-08-22T02:00:57.598Z,7.27
2022-08-22T02:03:51.776Z,7.57
2022-08-22T02:06:24.571Z,6.83
2022-08-22T02:09:26.804Z,7.13
2022-08-22T02:12:00.660Z,6.97
2022-08-22T02:14:33.259Z,6.40
2022-08-22T02:17:22.951Z,6.67
2022-08-22T02:20:17.606Z,7.10
2022-08-22T02:22:59.522Z,6.83
2022-08-22T02:25:31.641Z,7.40
2022-08-22T02:28:09.663Z,6.43
2022-08-22T02:30:51.170Z,7.80
2022-08-22T02:33:49.316Z,7.20
2022-08-22T02:36:25.157Z,7.37
2022-08-22T02:39:02.942Z,7.20
2022-08-22T02:41:36.269Z,6.60
2022-08-22T02:44:14.939Z,7.93
2022-08-22T02:47:07.221Z,7.53
2022-08-22T02:49:50.643Z,7.53
2022-08-22T02:52:24.243Z,6.90
2022-08-22T02:55:06.066Z,7.40
2022-08-22T02:57:40.408Z,7.47
2022-08-22T03:00:32.542Z,7.30
2022-08-22T03:02:59.700Z,7.17
2022-08-22T03:05:38.265Z,6.80
2022-08-22T03:08:16.722Z,7.20
2022-08-22T03:10:46.384Z,6.70
2022-08-22T03:13:37.313Z,6.13
2022-08-22T03:16:15.614Z,6.97
2022-08-22T03:19:13.215Z,7.13
2022-08-22T03:21:51.966Z,7.53
2022-08-22T03:24:31.873Z,6.37
2022-08-22T03:27:06.187Z,6.37
2022-08-22T03:29:45.828Z,6.40
2022-08-22T03:32:14.253Z,7.60
2022-08-22T03:35:03.555Z,6.93
2022-08-22T03:37:38.760Z,6.80
2022-08-22T03:40:23.681Z,7.90
2022-08-22T03:43:13.100Z,6.90
2022-08-22T03:46:01.415Z,6.00
2022-08-22T03:48:46.720Z,6.77
2022-08-22T03:51:33.285Z,7.00
2022-08-22T03:54:18.571Z,7.90
2022-08-22T03:57:16.131Z,7.87
2022-08-22T03:59:53.622Z,7.90
2022-08-22T04:02:44.369Z,6.90
2022-08-22T04:05:35.630Z,6.17
2022-08-22T04:08:02.722Z,8.10
2022-08-22T04:10:37.262Z,7.57
2022-08-22T04:13:15.811Z,7.53
2022-08-22T04:15:58.074Z,7.40
2022-08-22T04:18:35.057Z,6.67
2022-08-22T04:21:13.928Z,7.30
2022-08-22T04:23:59.326Z,7.80
2022-08-22T04:26:47.233Z,7.60
2022-08-22T04:29:25.357Z,7.97
2022-08-22T04:31:59.946Z,6.30
2022-08-22T04:34:36.861Z,7.13
2022-08-22T04:37:28.164Z,7.17
2022-08-22T04:40:03.651Z,8.20
2022-08-22T04:42:43.979Z,7.60
2022-08-22T04:45:24.384Z,9.13
2022-08-22T04:48:01.081Z,8.73
2022-08-22T04:50:35.050Z,7.57
2022-08-22T04:53:39.007Z,7.10
2022-08-22T04:56:26.734Z,7.60
2022-08-22T04:58:59.498Z,8.03
2022-08-22T05:01:48.483Z,6.80
2022-08-22T05:04:29.559Z,6.90
2022-08-22T05:07:16.136Z,6.90
2022-08-22T05:09:45.491Z,7.83
2022-08-22T05:12:15.889Z,9.07
2022-08-22T05:15:09.803Z,7.50
2022-08-22T05:17:37.228Z,7.67
2022-08-22T05:20:08.169Z,8.03
2022-08-22T05:22:37.441Z,7.50
2022-08-22T05:25:10.996Z,7.07
2022-08-22T05:27:44.478Z,7.77
2022-08-22T05:30:16.524Z,8.50
2022-08-22T05:32:59.264Z,8.60
2022-08-22T05:35:38.679Z,7.87
2022-08-22T05:38:07.377Z,8.27
2022-08-22T05:40:35.463Z,7.03
2022-08-22T05:43:05.107Z,6.87
2022-08-22T05:45:34.182Z,6.90
2022-08-22T05:48:08.882Z,6.87
2022-08-22T05:50:42.020Z,6.87
2022-08-22T05:53:11.613Z,8.43
2022-08-22T05:55:55.831Z,7.60
2022-08-22T05:58:43.311Z,7.47
2022-08-22T06:01:37.933Z,7.80
2022-08-22T06:04:22.887Z,6.73
2022-08-22T06:06:57.373Z,7.97
2022-08-22T06:09:35.319Z,7.93
2022-08-22T06:12:21.874Z,6.83
2022-08-22T06:15:12.322Z,7.50
2022-08-22T06:17:45.601Z,7.43
2022-08-22T06:20:18.603Z,8.43
2022-08-22T06:22:51.654Z,6.80
2022-08-22T06:25:25.419Z,7.33
2022-08-22T06:27:53.197Z,7.80
2022-08-22T06:30:20.788Z,7.03
2022-08-22T06:32:58.921Z,8.60
2022-08-22T06:36:02.349Z,7.27
2022-08-22T06:38:33.394Z,6.57
2022-08-22T06:41:03.068Z,7.70
2022-08-22T06:43:37.557Z,6.13
2022-08-22T06:46:05.523Z,8.03
2022-08-22T06:48:32.721Z,8.77
2022-08-22T06:50:59.355Z,7.93
2022-08-22T06:53:26.002Z,7.90
2022-08-22T06:55:54.696Z,7.90
2022-08-22T06:58:30.835Z,8.60
2022-08-22T07:01:17.339Z,7.00
2022-08-22T07:03:46.993Z,7.90
2022-08-22T07:06:15.855Z,9.10
2022-08-22T07:08:42.639Z,7.50
2022-08-22T07:11:16.184Z,7.60
2022-08-22T07:13:45.768Z,7.00
2022-08-22T07:16:12.806Z,8.87
2022-08-22T07:18:49.009Z,8.40
2022-08-22T07:21:28.507Z,6.40
2022-08-22T07:23:58.540Z,6.83
2022-08-22T07:26:34.089Z,7.10
2022-08-22T07:29:11.333Z,6.90
2022-08-22T07:31:40.407Z,7.03
2022-08-22T07:34:39.985Z,6.70
2022-08-22T07:37:12.599Z,8.00
2022-08-22T07:39:53.838Z,7.57
2022-08-22T07:42:46.201Z,7.17
2022-08-22T07:45:20.736Z,8.10
2022-08-22T07:48:25.126Z,7.70
2022-08-22T07:51:01.035Z,6.53
2022-08-22T07:53:36.521Z,7.23
2022-08-22T07:56:04.625Z,7.50
2022-08-22T07:58:34.025Z,9.00
2022-08-22T08:01:01.359Z,7.80
2022-08-22T08:03:29.656Z,7.50
2022-08-22T08:05:56.451Z,7.47
2022-08-22T08:08:26.731Z,6.73
2022-08-22T08:10:56.428Z,7.10
2022-08-22T08:13:34.711Z,7.57
2022-08-22T08:16:04.015Z,9.37
2022-08-22T08:18:33.926Z,7.83
2022-08-22T08:21:05.693Z,7.20
2022-08-22T08:23:39.711Z,8.43
2022-08-22T08:26:19.334Z,8.17
2022-08-22T08:28:48.813Z,8.60
2022-08-22T08:31:35.456Z,9.13
2022-08-22T08:34:08.403Z,10.10
2022-08-22T08:36:54.200Z,8.87
2022-08-22T08:39:36.641Z,10.67
2022-08-22T08:42:55.184Z,9.37
2022-08-22T08:45:34.600Z,10.17
2022-08-22T08:48:19.871Z,9.00
2022-08-22T08:51:02.035Z,10.20
2022-08-22T08:53:51.131Z,7.77
2022-08-22T08:56:27.550Z,11.00
2022-08-22T08:59:10.317Z,9.40
2022-08-22T09:02:13.805Z,9.10
2022-08-22T09:05:12.720Z,9.00
2022-08-22T09:08:12.551Z,8.70
2022-08-22T09:11:14.391Z,10.10
2022-08-22T09:14:03.373Z,10.00
2022-08-22T09:16:51.267Z,11.10
2022-08-22T09:19:21.423Z,10.80
2022-08-22T09:21:58.645Z,11.17
2022-08-22T09:24:57.745Z,10.20
2022-08-22T09:27:30.834Z,10.80
2022-08-22T09:30:06.228Z,10.67
2022-08-22T09:32:39.884Z,9.63
2022-08-22T09:35:16.227Z,11.53
2022-08-22T09:38:13.110Z,8.57
2022-08-22T09:40:46.340Z,9.90
2022-08-22T09:43:24.997Z,9.33
2022-08-22T09:45:57.808Z,9.57
2022-08-22T09:48:34.739Z,10.13
2022-08-22T09:51:31.843Z,10.40
2022-08-22T09:53:59.625Z,9.57
2022-08-22T09:56:47.982Z,11.60
2022-08-22T09:59:36.856Z,8.53
2022-08-22T10:02:31.555Z,8.17
2022-08-22T10:05:12.660Z,8.33
2022-08-22T10:08:05.554Z,7.90
2022-08-22T10:10:35.453Z,7.27
2022-08-22T10:13:23.883Z,7.00
2022-08-22T10:15:56.480Z,8.03
2022-08-22T10:18:43.955Z,7.70
2022-08-22T10:21:50.662Z,7.73
2022-08-22T10:24:44.314Z,7.30
2022-08-22T10:27:16.383Z,8.07
2022-08-22T10:29:55.103Z,6.97
2022-08-22T10:32:40.365Z,6.80
2022-08-22T10:35:33.860Z,7.57
2022-08-22T10:38:07.509Z,7.70
2022-08-22T10:40:48.488Z,8.90
2022-08-22T10:43:21.682Z,7.50
2022-08-22T10:46:29.857Z,7.60
2022-08-22T10:48:58.749Z,7.40
2022-08-22T10:51:43.704Z,7.47
2022-08-22T10:54:28.571Z,7.00
2022-08-22T10:57:29.331Z,8.20
2022-08-22T11:00:10.369Z,6.90
2022-08-22T11:03:02.845Z,7.23
2022-08-22T11:05:39.398Z,7.30
2022-08-22T11:08:20.757Z,7.10
2022-08-22T11:11:03.989Z,7.50
2022-08-22T14:58:03.503Z,4.83
2022-08-22T15:00:39.128Z,5.03
2022-08-22T15:03:13.727Z,4.40
2022-08-22T15:06:17.523Z,4.80
2022-08-22T15:08:50.784Z,5.10
2022-08-22T15:11:17.239Z,5.00
2022-08-22T15:13:56.100Z,4.30
2022-08-22T15:16:28.140Z,4.27
2022-08-22T15:18:54.635Z,5.30
2022-08-22T15:21:24.385Z,4.53
2022-08-22T15:23:55.433Z,4.83
2022-08-22T15:26:38.419Z,5.03
2022-08-22T15:29:22.736Z,5.20
2022-08-22T15:31:52.035Z,4.33
2022-08-22T15:34:33.782Z,4.20
2022-08-22T15:37:10.986Z,4.60
2022-08-22T15:40:28.753Z,4.90
2022-08-22T15:42:57.138Z,4.93
2022-08-22T15:45:34.716Z,4.53
2022-08-22T15:48:08.020Z,4.60
2022-08-22T15:51:02.391Z,4.80
2022-08-22T15:54:00.544Z,4.67
2022-08-22T15:56:33.426Z,4.20
2022-08-22T15:59:48.238Z,4.50
2022-08-22T16:02:39.596Z,4.43
2022-08-22T16:05:08.968Z,4.40
2022-08-22T16:07:42.526Z,4.83
2022-08-22T16:10:24.357Z,4.30
2022-08-22T16:13:10.093Z,4.40
2022-08-22T16:15:47.081Z,4.20
2022-08-22T16:18:37.137Z,4.73
2022-08-22T16:21:13.584Z,4.83
2022-08-22T16:23:46.378Z,4.53
2022-08-22T16:26:15.481Z,4.30
2022-08-22T16:29:17.327Z,5.03
2022-08-22T16:31:44.530Z,5.17
2022-08-22T16:34:17.024Z,4.80
2022-08-22T16:36:49.924Z,4.90
2022-08-22T16:39:22.518Z,5.03
2022-08-22T16:41:50.746Z,5.70
2022-08-22T16:44:29.623Z,5.87
2022-08-22T16:47:18.937Z,4.80
2022-08-22T16:49:51.563Z,4.80
2022-08-22T16:52:21.256Z,6.13
2022-08-22T16:54:50.158Z,6.23
2022-08-22T16:58:05.405Z,5.70
2022-08-22T17:00:57.848Z,5.23
2022-08-22T17:03:38.355Z,5.90
2022-08-22T17:06:17.721Z,5.43
2022-08-22T17:09:06.496Z,5.40
2022-08-22T17:11:55.994Z,5.03
2022-08-22T17:14:25.476Z,5.37
2022-08-22T17:17:01.984Z,5.50
2022-08-22T17:19:39.383Z,6.47
2022-08-22T17:22:39.936Z,6.30
2022-08-22T17:25:15.555Z,6.30
2022-08-22T17:27:45.124Z,5.80
2022-08-22T17:30:22.397Z,6.00
2022-08-22T17:33:15.166Z,5.97
2022-08-22T17:36:03.239Z,6.30
2022-08-22T17:38:45.706Z,5.87
2022-08-22T17:41:26.087Z,6.10
2022-08-22T17:44:02.808Z,5.90
2022-08-22T17:47:00.946Z,6.00
2022-08-22T17:49:50.435Z,5.90
2022-08-22T17:52:43.292Z,6.40
2022-08-22T17:55:18.821Z,6.33
2022-08-22T17:57:53.268Z,6.30
2022-08-22T18:00:36.162Z,6.10
2022-08-22T18:03:31.694Z,5.93
2022-08-22T18:06:09.451Z,5.30
2022-08-22T18:11:40.123Z,5.70
2022-08-22T18:14:11.473Z,7.10
2022-08-22T18:16:47.549Z,5.50
2022-08-22T18:19:23.014Z,7.10
2022-08-22T18:22:09.783Z,5.40
2022-08-22T18:24:49.510Z,6.00
2022-08-22T18:27:35.445Z,5.10
2022-08-22T18:30:11.175Z,6.03
2022-08-22T18:32:46.000Z,5.80
2022-08-22T18:35:21.945Z,6.77
2022-08-22T18:37:56.167Z,6.27
2022-08-22T18:40:44.349Z,5.73
2022-08-22T18:43:24.034Z,5.40
2022-08-22T18:45:50.590Z,5.40
2022-08-22T18:48:49.540Z,5.30
2022-08-22T18:51:38.280Z,4.97
2022-08-22T18:54:05.188Z,5.37
2022-08-22T18:56:31.679Z,6.77
2022-08-22T18:59:15.753Z,4.83
2022-08-22T19:02:10.690Z,4.70
2022-08-22T19:05:04.096Z,6.10
2022-08-22T19:07:36.852Z,5.00
2022-08-22T19:10:29.837Z,4.90
2022-08-22T19:13:09.113Z,4.60
2022-08-22T19:15:41.439Z,4.90
2022-08-22T19:18:29.145Z,4.37
2022-08-22T19:21:32.760Z,4.90
2022-08-22T19:23:59.812Z,4.20
2022-08-22T19:26:37.547Z,5.00
2022-08-22T19:29:29.502Z,5.30
2022-08-22T19:31:58.233Z,4.30
2022-08-22T19:34:30.849Z,5.80
2022-08-22T19:37:33.341Z,5.40
2022-08-22T19:40:06.195Z,5.60
2022-08-22T19:42:35.816Z,5.63
2022-08-22T19:45:05.212Z,5.30
2022-08-22T19:47:35.205Z,4.50
2022-08-22T19:50:01.837Z,4.70
2022-08-22T19:52:44.184Z,5.37
2022-08-22T19:55:18.482Z,5.30
2022-08-22T19:58:09.231Z,4.67
2022-08-22T20:00:40.881Z,5.87
2022-08-22T20:03:37.492Z,5.30
2022-08-22T20:06:33.697Z,6.10
2022-08-22T20:09:29.398Z,5.63
2022-08-22T20:12:15.503Z,5.70
2022-08-22T20:14:44.831Z,4.57
2022-08-22T20:17:26.835Z,4.70
2022-08-22T20:22:52.966Z,5.27
2022-08-22T20:25:43.690Z,5.63
2022-08-22T20:28:47.063Z,5.03
2022-08-22T20:31:21.439Z,5.17
2022-08-22T20:33:53.180Z,4.93
2022-08-22T20:36:27.919Z,5.37
2022-08-22T20:39:00.319Z,5.43
2022-08-22T20:41:38.030Z,4.60
2022-08-22T20:44:04.853Z,5.37
2022-08-22T20:46:57.641Z,7.63
2022-08-22T20:49:28.706Z,5.63
2022-08-22T20:51:59.375Z,5.23
2022-08-22T20:54:29.189Z,4.80
2022-08-22T20:57:00.206Z,7.13
2022-08-22T20:59:31.545Z,6.00
2022-08-22T21:02:15.009Z,5.83
2022-08-22T21:04:57.564Z,4.90
2022-08-22T21:07:25.874Z,4.60
2022-08-22T21:10:38.961Z,4.60
2022-08-22T21:13:21.004Z,4.50
2022-08-22T21:15:51.704Z,4.87
2022-08-22T21:18:33.980Z,5.00
2022-08-22T21:21:20.532Z,4.97
2022-08-22T21:23:50.135Z,5.87
2022-08-22T21:26:39.635Z,5.27
2022-08-22T21:29:12.359Z,4.67
2022-08-22T21:31:45.818Z,6.00
2022-08-22T21:34:28.618Z,5.27
2022-08-22T21:36:59.671Z,4.50
2022-08-22T21:39:28.866Z,4.87
2022-08-22T21:42:01.310Z,5.37
2022-08-22T21:44:30.814Z,4.80
2022-08-22T21:47:13.942Z,5.47
2022-08-22T21:50:00.263Z,5.50
2022-08-22T21:52:28.543Z,5.60
2022-08-22T21:54:55.180Z,4.40
2022-08-22T21:57:34.643Z,5.63
2022-08-22T22:00:01.716Z,4.40
2022-08-22T22:02:34.244Z,4.87
2022-08-22T22:05:07.412Z,5.73
2022-08-22T22:07:39.601Z,5.30
2022-08-22T22:10:08.732Z,4.63
2022-08-22T22:12:35.429Z,4.93
2022-08-22T22:15:02.924Z,5.50
2022-08-22T22:17:29.403Z,4.57
2022-08-22T22:19:56.074Z,6.27
2022-08-22T22:22:22.599Z,5.00
2022-08-22T22:24:49.198Z,5.30
2022-08-22T22:27:17.170Z,4.80
2022-08-22T22:29:43.905Z,5.10
2022-08-22T22:32:10.442Z,5.93
2022-08-22T22:34:39.126Z,6.10
2022-08-22T22:37:08.225Z,5.70
2022-08-22T22:39:36.357Z,5.63
2022-08-22T22:42:03.735Z,4.90
2022-08-22T22:44:30.730Z,5.83
2022-08-22T22:46:58.573Z,4.97
2022-08-22T22:49:25.332Z,5.20
2022-08-22T22:51:52.153Z,4.43
2022-08-22T22:54:18.716Z,4.70
2022-08-22T22:56:53.959Z,4.63
2022-08-22T22:59:24.778Z,4.83
2022-08-22T23:02:06.251Z,5.47
2022-08-22T23:04:35.119Z,4.80
2022-08-22T23:07:02.284Z,5.87
2022-08-22T23:09:38.122Z,6.03
2022-08-22T23:12:12.725Z,5.37
2022-08-22T23:14:39.288Z,4.90
2022-08-22T23:17:05.878Z,5.33
2022-08-22T23:19:32.818Z,4.93
2022-08-22T23:22:00.910Z,5.37
2022-08-22T23:24:29.155Z,5.33
2022-08-22T23:26:55.944Z,4.40
2022-08-22T23:29:22.495Z,5.77
2022-08-22T23:32:01.282Z,5.03
2022-08-22T23:34:42.602Z,5.27
2022-08-22T23:37:10.923Z,4.93
2022-08-22T23:39:40.898Z,5.10
2022-08-22T23:42:08.492Z,5.70
2022-08-22T23:44:36.813Z,5.80
2022-08-22T23:47:05.187Z,5.77
2022-08-22T23:49:32.280Z,5.47
2022-08-22T23:51:59.576Z,5.10
2022-08-22T23:54:26.271Z,6.00
2022-08-22T23:56:55.444Z,5.40
2022-08-22T23:59:25.064Z,5.20
